createdAt,value
2022-09-12T00:14:03.691Z,99.90
2022-09-12T00:16:35.172Z,99.90
2022-09-12T00:19:05.530Z,99.90
2022-09-12T00:21:34.639Z,99.90
2022-09-12T00:24:07.179Z,99.90
2022-09-12T00:26:35.389Z,99.90
2022-09-12T00:29:05.768Z,99.90
2022-09-12T00:31:33.917Z,99.90
2022-09-12T00:34:02.909Z,99.90
2022-09-12T00:36:31.574Z,99.90
2022-09-12T00:38:59.422Z,99.90
2022-09-12T00:41:35.200Z,99.90
2022-09-12T00:44:24.792Z,99.90
2022-09-12T00:47:07.537Z,99.90
2022-09-12T00:49:54.590Z,99.90
2022-09-12T00:52:21.946Z,99.90
2022-09-12T00:55:18.444Z,99.90
2022-09-12T00:58:09.241Z,99.90
2022-09-12T01:00:37.210Z,99.90
2022-09-12T01:03:15.162Z,99.90
2022-09-12T01:06:09.892Z,99.90
2022-09-12T01:08:39.014Z,99.90
2022-09-12T01:11:08.906Z,99.90
2022-09-12T01:13:37.832Z,99.90
2022-09-12T01:16:06.495Z,99.90
2022-09-12T01:18:56.218Z,99.90
2022-09-12T01:21:26.235Z,99.90
2022-09-12T01:24:34.934Z,99.90
2022-09-12T01:27:19.711Z,99.90
2022-09-12T01:30:08.628Z,99.90
2022-09-12T01:33:02.810Z,99.90
2022-09-12T01:35:58.182Z,99.90
2022-09-12T01:38:47.411Z,99.90
2022-09-12T01:41:29.964Z,99.90
2022-09-12T01:44:24.323Z,99.90
2022-09-12T01:47:08.686Z,99.90
2022-09-12T01:49:58.112Z,99.90
2022-09-12T01:52:51.871Z,99.90
2022-09-12T01:55:27.399Z,99.90
2022-09-12T01:58:24.005Z,99.90
2022-09-12T02:01:06.797Z,99.90
2022-09-12T02:03:46.693Z,99.90
2022-09-12T02:06:26.403Z,99.90
2022-09-12T02:09:03.803Z,99.90
2022-09-12T02:11:35.837Z,99.90
2022-09-12T02:14:34.746Z,99.90
2022-09-12T02:17:10.999Z,99.90
2022-09-12T02:20:03.376Z,99.90
2022-09-12T02:22:36.524Z,99.90
2022-09-12T02:25:08.492Z,99.90
2022-09-12T02:27:44.944Z,99.90
2022-09-12T02:30:18.074Z,99.90
2022-09-12T02:33:07.533Z,99.90
2022-09-12T02:36:14.072Z,99.90
2022-09-12T02:38:46.068Z,99.90
2022-09-12T02:41:18.022Z,99.90
2022-09-12T02:43:46.384Z,99.90
2022-09-12T02:46:30.058Z,99.90
2022-09-12T02:49:00.075Z,99.90
2022-09-12T02:51:38.994Z,99.90
2022-09-12T02:54:08.505Z,99.90
2022-09-12T02:56:43.089Z,99.90
2022-09-12T02:59:15.369Z,99.90
2022-09-12T03:02:12.248Z,99.90
2022-09-12T03:04:58.031Z,99.90
2022-09-12T03:08:02.294Z,99.90
2022-09-12T03:10:53.630Z,99.90
2022-09-12T03:13:28.059Z,99.90
2022-09-12T03:16:05.511Z,99.90
2022-09-12T03:19:03.589Z,99.90
2022-09-12T03:21:42.169Z,99.90
2022-09-12T03:24:48.020Z,99.90
2022-09-12T03:27:39.353Z,99.90
2022-09-12T03:30:12.869Z,99.90
2022-09-12T03:32:51.872Z,99.90
2022-09-12T03:35:23.109Z,99.90
2022-09-12T03:37:52.511Z,99.90
2022-09-12T03:40:25.816Z,99.90
2022-09-12T03:42:53.938Z,99.90
2022-09-12T03:45:21.808Z,99.90
2022-09-12T03:47:49.348Z,99.90
2022-09-12T03:50:17.175Z,99.90
2022-09-12T03:52:44.541Z,99.90
2022-09-12T03:55:12.984Z,99.90
2022-09-12T03:57:43.890Z,99.90
2022-09-12T04:00:14.418Z,99.90
2022-09-12T04:02:45.287Z,99.90
2022-09-12T04:05:13.432Z,99.90
2022-09-12T04:07:40.819Z,99.90
2022-09-12T04:10:10.243Z,99.90
2022-09-12T04:12:39.757Z,99.90
2022-09-12T04:15:07.898Z,99.90
2022-09-12T04:17:37.908Z,99.90
2022-09-12T04:20:07.901Z,99.90
2022-09-12T04:22:36.954Z,99.90
2022-09-12T04:25:05.383Z,99.90
2022-09-12T04:27:35.880Z,99.90
2022-09-12T04:30:04.726Z,99.90
2022-09-12T04:32:34.811Z,99.90
2022-09-12T04:35:04.171Z,99.90
2022-09-12T04:37:35.275Z,99.90
2022-09-12T04:40:07.366Z,99.90
2022-09-12T04:42:37.183Z,99.90
2022-09-12T04:45:13.973Z,99.90
2022-09-12T04:47:41.221Z,99.90
2022-09-12T04:50:09.098Z,99.90
2022-09-12T04:52:36.481Z,99.90
2022-09-12T04:55:05.207Z,99.90
2022-09-12T04:57:36.347Z,99.90
2022-09-12T05:00:07.381Z,99.90
2022-09-12T05:02:36.184Z,99.90
2022-09-12T05:05:08.988Z,99.90
2022-09-12T05:07:36.809Z,99.90
2022-09-12T05:10:05.836Z,99.90
2022-09-12T05:12:34.188Z,99.90
2022-09-12T05:15:08.410Z,99.90
2022-09-12T05:17:35.819Z,99.90
2022-09-12T05:20:06.109Z,99.90
2022-09-12T05:22:34.234Z,99.90
2022-09-12T05:25:04.748Z,99.90
2022-09-12T05:27:33.239Z,99.90
2022-09-12T05:30:06.523Z,99.90
2022-09-12T05:32:34.821Z,99.90
2022-09-12T05:35:04.402Z,99.90
2022-09-12T05:37:34.254Z,99.90
2022-09-12T05:40:07.591Z,99.90
2022-09-12T05:42:38.900Z,99.90
2022-09-12T05:45:08.832Z,99.90
2022-09-12T05:47:36.704Z,99.90
2022-09-12T05:50:37.440Z,99.90
2022-09-12T05:53:09.028Z,99.90
2022-09-12T05:55:37.830Z,99.90
2022-09-12T05:58:06.624Z,99.90
2022-09-12T06:00:37.497Z,99.90
2022-09-12T06:03:06.359Z,99.90
2022-09-12T06:05:35.395Z,99.90
2022-09-12T06:08:05.005Z,99.90
2022-09-12T06:10:38.260Z,99.90
2022-09-12T06:13:39.106Z,99.90
2022-09-12T06:16:12.059Z,99.90
2022-09-12T06:18:40.740Z,99.90
2022-09-12T06:21:10.813Z,99.90
2022-09-12T06:23:48.256Z,99.90
2022-09-12T06:26:18.256Z,99.90
2022-09-12T06:28:47.676Z,99.90
2022-09-12T06:31:26.003Z,99.90
2022-09-12T06:33:59.811Z,99.90
2022-09-12T06:36:31.412Z,99.90
2022-09-12T06:39:02.812Z,99.90
2022-09-12T06:41:34.688Z,99.90
2022-09-12T06:44:03.642Z,99.90
2022-09-12T06:46:33.796Z,99.90
2022-09-12T06:49:03.618Z,99.90
2022-09-12T06:51:35.308Z,99.90
2022-09-12T06:54:05.803Z,99.90
2022-09-12T06:56:34.517Z,99.90
2022-09-12T06:59:02.783Z,99.90
2022-09-12T07:01:34.010Z,99.90
2022-09-12T07:04:05.636Z,99.90
2022-09-12T07:06:40.091Z,99.90
2022-09-12T07:09:13.258Z,99.90
2022-09-12T07:11:42.876Z,99.90
2022-09-12T07:14:13.031Z,99.90
2022-09-12T07:16:44.881Z,99.90
2022-09-12T07:19:13.990Z,99.90
2022-09-12T07:21:41.726Z,99.90
2022-09-12T07:24:11.507Z,99.90
2022-09-12T07:26:40.825Z,99.90
2022-09-12T07:32:04.965Z,99.90
2022-09-12T07:34:35.387Z,99.90
2022-09-12T07:37:10.534Z,99.90
2022-09-12T07:39:38.284Z,99.90
2022-09-12T07:42:05.899Z,99.90
2022-09-12T07:44:34.455Z,99.90
2022-09-12T07:47:03.422Z,99.90
2022-09-12T07:49:31.558Z,99.90
2022-09-12T07:52:01.367Z,99.90
2022-09-12T07:54:29.021Z,99.90
2022-09-12T07:56:57.723Z,99.90
2022-09-12T07:59:48.376Z,99.90
2022-09-12T08:02:17.219Z,99.90
2022-09-12T08:04:49.164Z,99.90
2022-09-12T08:07:18.800Z,99.90
2022-09-12T08:09:55.774Z,99.90
2022-09-12T08:12:24.240Z,99.90
2022-09-12T08:14:52.197Z,99.90
2022-09-12T08:17:20.070Z,99.90
2022-09-12T08:19:51.662Z,99.90
2022-09-12T08:22:22.053Z,99.90
2022-09-12T08:24:49.937Z,99.90
2022-09-12T08:27:17.339Z,99.90
2022-09-12T08:29:46.606Z,99.90
2022-09-12T08:32:14.241Z,99.90
2022-09-12T08:34:41.829Z,99.90
2022-09-12T08:37:10.803Z,99.90
2022-09-12T08:39:38.449Z,99.90
2022-09-12T08:42:07.130Z,99.90
2022-09-12T08:44:45.515Z,99.90
2022-09-12T08:47:29.279Z,99.90
2022-09-12T08:50:18.684Z,99.90
2022-09-12T08:53:06.834Z,99.90
2022-09-12T08:55:37.874Z,99.90
2022-09-12T08:58:24.395Z,99.90
2022-09-12T09:01:24.008Z,99.90
2022-09-12T09:04:17.457Z,99.90
2022-09-12T09:07:14.691Z,99.90
2022-09-12T09:10:08.057Z,99.90
2022-09-12T09:12:54.453Z,99.90
2022-09-12T09:15:41.365Z,99.90
2022-09-12T09:18:16.939Z,99.90
2022-09-12T09:20:58.007Z,99.90
2022-09-12T09:23:44.832Z,99.90
2022-09-12T09:26:18.881Z,99.90
2022-09-12T09:28:53.202Z,99.90
2022-09-12T09:31:23.260Z,99.90
2022-09-12T09:33:53.287Z,99.90
2022-09-12T09:36:25.830Z,99.90
2022-09-12T09:39:32.586Z,99.90
2022-09-12T09:42:27.673Z,99.90
2022-09-12T09:45:01.541Z,99.90
2022-09-12T09:47:38.262Z,99.90
2022-09-12T09:50:06.869Z,99.90
2022-09-12T09:52:38.457Z,99.90
2022-09-12T09:55:15.860Z,99.90
2022-09-12T09:57:47.973Z,99.90
2022-09-12T10:00:27.243Z,99.90
2022-09-12T10:03:13.832Z,99.90
2022-09-12T10:06:23.758Z,99.90
2022-09-12T10:09:06.161Z,99.90
2022-09-12T10:11:34.753Z,99.90
2022-09-12T10:17:34.289Z,99.90
2022-09-12T10:20:21.982Z,99.90
2022-09-12T10:22:53.006Z,99.90
2022-09-12T10:25:25.368Z,99.90
2022-09-12T10:27:58.592Z,99.90
2022-09-12T10:30:28.918Z,99.90
2022-09-12T10:33:16.009Z,99.90
2022-09-12T10:35:49.024Z,99.90
2022-09-12T10:38:26.842Z,99.90
2022-09-12T10:41:10.567Z,99.90
2022-09-12T10:43:42.402Z,99.90
2022-09-12T10:46:16.891Z,99.90
2022-09-12T10:48:47.426Z,99.90
2022-09-12T10:51:37.117Z,99.90
2022-09-12T10:54:09.099Z,99.90
2022-09-12T10:57:15.034Z,99.90
2022-09-12T11:00:05.512Z,99.90
2022-09-12T11:02:40.135Z,99.90
2022-09-12T11:05:38.918Z,99.90
2022-09-12T11:08:16.595Z,99.90
2022-09-12T11:11:23.456Z,99.90
2022-09-12T11:14:26.190Z,99.90
2022-09-12T11:17:31.779Z,99.90
2022-09-12T11:20:26.999Z,99.90
2022-09-12T11:23:18.118Z,99.90
2022-09-12T11:26:23.188Z,99.90
2022-09-12T11:29:09.565Z,99.90
2022-09-12T11:31:49.380Z,99.90
2022-09-12T11:34:44.726Z,99.90
2022-09-12T11:37:36.962Z,99.90
2022-09-12T11:40:18.660Z,99.90
2022-09-12T11:42:48.195Z,99.90
2022-09-12T11:45:25.788Z,99.90
2022-09-12T11:48:00.114Z,99.90
2022-09-12T11:50:33.276Z,99.90
2022-09-12T11:53:15.274Z,99.90
2022-09-12T11:55:54.012Z,99.90
2022-09-12T11:58:26.767Z,99.90
2022-09-12T12:01:19.148Z,99.90
2022-09-12T12:03:50.147Z,99.90
2022-09-12T12:06:22.479Z,99.90
2022-09-12T12:08:55.058Z,99.90
2022-09-12T12:11:44.071Z,99.90
2022-09-12T12:14:15.037Z,99.90
2022-09-12T12:23:36.871Z,97.70
2022-09-12T12:26:05.754Z,99.10
2022-09-12T12:28:53.896Z,99.90
2022-09-12T12:31:24.214Z,99.90
2022-09-12T12:33:53.526Z,99.90
2022-09-12T12:36:41.208Z,99.90
2022-09-12T12:39:37.176Z,98.10
2022-09-12T12:42:05.166Z,99.10
2022-09-12T12:44:45.407Z,99.90
2022-09-12T12:47:26.130Z,99.50
2022-09-12T12:49:58.735Z,98.00
2022-09-12T12:52:33.733Z,99.50
2022-09-12T12:55:05.819Z,98.10
2022-09-12T12:57:50.719Z,99.30
2022-09-12T13:00:21.586Z,99.00
2022-09-12T13:03:02.730Z,97.10
2022-09-12T13:05:48.933Z,96.60
2022-09-12T13:08:19.183Z,96.90
2022-09-12T13:11:28.284Z,96.80
2022-09-12T13:14:03.003Z,96.80
2022-09-12T13:16:55.016Z,95.60
2022-09-12T13:19:38.374Z,96.70
2022-09-12T13:22:10.678Z,96.50
2022-09-12T13:24:53.076Z,97.10
2022-09-12T13:27:26.355Z,96.10
2022-09-12T13:30:14.479Z,95.40
2022-09-12T13:32:43.826Z,95.50
2022-09-12T13:35:21.923Z,95.30
2022-09-12T13:38:15.718Z,94.90
2022-09-12T13:41:06.639Z,95.50
2022-09-12T13:43:42.436Z,95.20
2022-09-12T13:46:20.475Z,95.10
2022-09-12T13:48:49.161Z,94.70
2022-09-12T13:51:35.186Z,95.30
2022-09-12T13:54:05.314Z,94.70
2022-09-12T13:56:33.158Z,95.20
2022-09-12T13:59:13.178Z,95.00
2022-09-12T14:01:46.104Z,95.90
2022-09-12T14:04:45.423Z,96.80
2022-09-12T14:07:22.732Z,95.90
2022-09-12T14:09:58.740Z,95.20
2022-09-12T14:12:31.812Z,96.10
2022-09-12T14:15:00.126Z,95.00
2022-09-12T14:17:36.488Z,94.60
2022-09-12T14:20:32.792Z,95.20
2022-09-12T14:29:31.800Z,96.90
2022-09-12T14:32:17.045Z,97.10
2022-09-12T14:35:24.688Z,97.20
2022-09-12T14:37:52.726Z,97.60
2022-09-12T14:40:23.981Z,97.30
2022-09-12T14:43:01.067Z,98.10
2022-09-12T14:45:34.011Z,96.90
2022-09-12T14:48:21.505Z,97.10
2022-09-12T14:50:53.529Z,97.30
2022-09-12T14:53:38.196Z,99.30
2022-09-12T14:56:10.222Z,98.10
2022-09-12T14:58:42.967Z,99.90
2022-09-12T15:01:13.748Z,99.90
2022-09-12T15:03:49.558Z,99.50
2022-09-12T15:06:26.110Z,99.90
2022-09-12T15:09:08.336Z,99.90
2022-09-12T15:11:36.360Z,99.90
2022-09-12T15:14:23.140Z,99.90
2022-09-12T15:16:50.854Z,99.90
2022-09-12T15:19:18.498Z,99.90
2022-09-12T15:21:48.551Z,99.90
2022-09-12T15:24:16.759Z,99.90
2022-09-12T15:26:44.204Z,99.90
2022-09-12T15:29:12.193Z,99.90
2022-09-12T15:31:41.071Z,99.90
2022-09-12T15:34:10.044Z,99.90
2022-09-12T15:36:37.657Z,99.90
2022-09-12T15:39:05.256Z,99.90
2022-09-12T15:41:38.302Z,99.90
2022-09-12T15:44:13.330Z,99.90
2022-09-12T15:46:41.297Z,99.90
2022-09-12T15:49:09.390Z,99.90
2022-09-12T15:51:37.631Z,99.90
2022-09-12T15:54:06.761Z,99.90
2022-09-12T15:56:34.341Z,99.90
2022-09-12T15:59:05.699Z,99.90
2022-09-12T16:01:33.660Z,99.90
2022-09-12T16:04:05.060Z,99.90
2022-09-12T16:06:37.431Z,99.90
2022-09-12T16:09:04.766Z,99.90
2022-09-12T16:11:33.224Z,99.90
2022-09-12T16:14:03.088Z,99.90
2022-09-12T16:16:31.728Z,99.90
2022-09-12T16:18:59.331Z,99.90
2022-09-12T16:21:27.183Z,99.90
2022-09-12T16:23:55.453Z,99.90
2022-09-12T16:26:23.339Z,99.90
2022-09-12T16:29:12.482Z,99.90
2022-09-12T16:31:40.200Z,99.90
2022-09-12T16:34:11.853Z,99.90
2022-09-12T16:36:40.244Z,99.90
2022-09-12T16:39:08.717Z,99.90
2022-09-12T16:41:35.948Z,99.90
2022-09-12T16:44:04.833Z,99.90
2022-09-12T16:46:35.816Z,99.90
2022-09-12T16:49:06.102Z,99.90
2022-09-12T16:51:37.708Z,99.90
2022-09-12T16:54:05.189Z,99.90
2022-09-12T16:56:33.884Z,99.90
2022-09-12T16:59:03.121Z,99.90
2022-09-12T17:01:36.793Z,99.90
2022-09-12T17:04:04.966Z,99.90
2022-09-12T17:06:34.959Z,99.90
2022-09-12T17:09:05.071Z,99.90
2022-09-12T17:11:38.224Z,99.90
2022-09-12T17:14:09.550Z,99.90
2022-09-12T17:16:42.226Z,99.90
2022-09-12T17:19:18.634Z,99.90
2022-09-12T17:21:48.001Z,99.90
2022-09-12T17:24:17.331Z,99.90
2022-09-12T17:26:47.587Z,99.90
2022-09-12T17:29:16.271Z,99.90
2022-09-12T17:31:44.687Z,99.90
2022-09-12T17:34:16.545Z,99.90
2022-09-12T17:36:46.318Z,99.90
2022-09-12T17:39:14.435Z,99.90
2022-09-12T17:41:51.336Z,99.90
2022-09-12T17:44:22.390Z,99.90
2022-09-12T17:46:50.375Z,99.90
2022-09-12T17:49:23.958Z,99.90
2022-09-12T17:51:52.632Z,99.90
2022-09-12T17:54:22.911Z,99.90
2022-09-12T17:56:51.885Z,99.90
2022-09-12T17:59:24.289Z,99.90
2022-09-12T18:02:10.518Z,99.90
2022-09-12T18:04:39.597Z,99.90
2022-09-12T18:07:07.719Z,99.90
2022-09-12T18:09:36.753Z,99.90
2022-09-12T18:12:04.651Z,99.90
2022-09-12T18:14:35.187Z,99.90
2022-09-12T18:17:03.187Z,99.90
2022-09-12T18:19:33.099Z,99.90
2022-09-12T18:22:01.476Z,99.90
2022-09-12T18:24:31.831Z,99.90
2022-09-12T18:26:59.189Z,99.90
2022-09-12T18:29:28.159Z,99.90
2022-09-12T18:31:56.427Z,99.90
2022-09-12T18:34:29.219Z,99.90
2022-09-12T18:37:06.099Z,99.90
2022-09-12T18:39:34.488Z,99.90
2022-09-12T18:42:03.192Z,99.90
2022-09-12T18:44:31.766Z,99.90
2022-09-12T18:46:59.339Z,99.90
2022-09-12T18:49:26.799Z,99.90
2022-09-12T18:51:55.615Z,99.90
2022-09-12T18:54:24.923Z,99.90
2022-09-12T18:56:53.911Z,99.90
2022-09-12T18:59:21.645Z,99.90
2022-09-12T19:01:50.431Z,99.90
2022-09-12T19:04:17.777Z,99.90
2022-09-12T19:06:47.344Z,99.90
2022-09-12T19:09:17.307Z,99.90
2022-09-12T19:11:50.120Z,99.90
2022-09-12T19:14:27.790Z,99.90
2022-09-12T19:16:55.357Z,99.90
2022-09-12T19:19:23.458Z,99.90
2022-09-12T19:21:52.208Z,99.90
2022-09-12T19:24:22.290Z,99.90
2022-09-12T19:26:51.049Z,99.90
2022-09-12T19:29:19.129Z,99.90
2022-09-12T19:31:48.157Z,99.90
2022-09-12T19:34:19.225Z,99.90
2022-09-12T19:36:47.527Z,99.90
2022-09-12T19:39:17.096Z,99.90
2022-09-12T19:41:48.519Z,99.90
2022-09-12T19:44:19.844Z,99.90
2022-09-12T19:46:49.028Z,99.90
2022-09-12T19:49:17.661Z,99.90
2022-09-12T19:51:45.629Z,99.90
2022-09-12T19:54:13.281Z,99.90
2022-09-12T19:56:40.979Z,99.90
2022-09-12T19:59:09.506Z,99.90
2022-09-12T20:01:39.301Z,99.90
2022-09-12T20:04:07.286Z,99.90
2022-09-12T20:06:37.283Z,99.90
2022-09-12T20:09:05.577Z,99.90
2022-09-12T20:11:33.527Z,99.90
2022-09-12T20:14:06.714Z,99.90
2022-09-12T20:16:36.064Z,99.90
2022-09-12T20:19:09.888Z,99.90
2022-09-12T20:21:40.693Z,99.90
2022-09-12T20:24:10.694Z,99.90
2022-09-12T20:26:40.527Z,99.90
2022-09-12T20:32:39.284Z,99.90
2022-09-12T20:35:08.483Z,99.90
2022-09-12T20:37:41.604Z,99.90
2022-09-12T20:40:12.578Z,99.90
2022-09-12T20:42:41.410Z,99.90
2022-09-12T20:45:09.120Z,99.90
2022-09-12T20:47:37.860Z,99.90
2022-09-12T20:50:05.749Z,99.90
2022-09-12T20:52:33.517Z,99.90
2022-09-12T20:55:04.006Z,99.90
2022-09-12T20:57:32.556Z,99.90
2022-09-12T21:00:09.821Z,99.90
2022-09-12T21:02:40.106Z,99.90
2022-09-12T21:05:07.756Z,99.90
2022-09-12T21:08:10.671Z,99.90
2022-09-12T21:10:38.333Z,99.90
2022-09-12T21:13:38.318Z,99.90
2022-09-12T21:16:08.988Z,99.90
2022-09-12T21:18:38.752Z,99.90
2022-09-12T21:21:06.798Z,99.90
2022-09-12T21:23:35.803Z,99.90
2022-09-12T21:26:16.313Z,99.90
2022-09-12T21:28:44.866Z,99.90
2022-09-12T21:31:12.340Z,99.90
2022-09-12T21:33:43.161Z,99.90
2022-09-12T21:36:14.621Z,99.90
2022-09-12T21:38:42.729Z,99.90
2022-09-12T21:41:15.591Z,99.90
2022-09-12T21:43:44.082Z,99.90
2022-09-12T21:46:16.372Z,99.90
2022-09-12T21:48:44.545Z,99.90
2022-09-12T21:51:15.162Z,99.90
2022-09-12T21:53:42.457Z,99.90
2022-09-12T21:56:09.935Z,99.90
2022-09-12T21:58:38.085Z,99.90
2022-09-12T22:01:06.394Z,99.90
2022-09-12T22:03:34.401Z,99.90
2022-09-12T22:06:04.036Z,99.90
2022-09-12T22:08:37.042Z,99.90
2022-09-12T22:11:09.383Z,99.90
2022-09-12T22:13:39.520Z,99.90
2022-09-12T22:16:07.566Z,99.90
2022-09-12T22:18:38.856Z,99.90
2022-09-12T22:21:09.536Z,99.90
2022-09-12T22:23:59.749Z,99.90
2022-09-12T22:26:27.748Z,99.90
2022-09-12T22:28:55.624Z,99.90
2022-09-12T22:31:23.478Z,99.90
2022-09-12T22:33:57.793Z,99.90
2022-09-12T22:36:29.203Z,99.90
2022-09-12T22:39:00.118Z,99.90
2022-09-12T22:41:29.208Z,99.90
2022-09-12T22:43:57.757Z,99.90
2022-09-12T22:46:26.038Z,99.90
2022-09-12T22:48:55.807Z,99.90
2022-09-12T22:51:23.205Z,99.90
2022-09-12T22:53:51.639Z,99.90
2022-09-12T22:56:20.016Z,99.90
2022-09-12T22:58:47.583Z,99.90
2022-09-12T23:01:18.270Z,99.90
2022-09-12T23:03:46.423Z,99.90
2022-09-12T23:06:15.231Z,99.90
2022-09-12T23:08:43.431Z,99.90
2022-09-12T23:11:14.713Z,99.90
2022-09-12T23:13:44.772Z,99.90
2022-09-12T23:16:21.601Z,99.90
2022-09-12T23:18:50.664Z,99.90
2022-09-12T23:21:20.771Z,99.90
2022-09-12T23:23:49.271Z,99.90
2022-09-12T23:26:18.660Z,99.90
2022-09-12T23:28:59.898Z,99.90
2022-09-12T23:31:33.390Z,99.90
2022-09-12T23:34:06.325Z,99.90
2022-09-12T23:36:34.454Z,99.90
2022-09-12T23:39:05.135Z,99.90
2022-09-12T23:41:33.853Z,99.90
2022-09-12T23:44:03.458Z,99.90
2022-09-12T23:46:31.703Z,99.90
2022-09-12T23:48:58.982Z,99.90
2022-09-12T23:51:26.587Z,99.90
2022-09-12T23:53:56.534Z,99.90
2022-09-12T23:56:24.022Z,99.90
2022-09-12T23:58:51.760Z,99.90
